Time;durP1;ratioP1;P1;durP2;ratioP2;P2;SDS_P1;SDS_P2;PMS_P1;PMS_P2;Temp;Humidity;BMP_temperature;BMP_pressure;BME280_temperature;BME280_humidity;BME280_pressure;Samples;Min_cycle;Max_cycle;Signal;HPM_P1;HPM_P2
2021/03/12 05:10:28;;;;;;;1.00;1.00;;;7.80;99.90;;;;;;6067576;23;20195;31
2021/03/12 05:12:57;;;;;;;0.90;0.90;;;7.70;99.90;;;;;;4935741;29;20256;-80
2021/03/12 05:15:26;;;;;;;1.03;1.03;;;7.70;99.90;;;;;;4937161;29;20198;-77
2021/03/12 05:17:53;;;;;;;1.07;1.07;;;7.80;99.90;;;;;;4937090;29;20352;-79
2021/03/12 05:20:20;;;;;;;1.10;1.10;;;7.70;99.90;;;;;;4937398;29;20229;-77
2021/03/12 05:22:47;;;;;;;0.90;0.90;;;7.80;99.90;;;;;;4937568;29;20742;-79
2021/03/12 05:25:14;;;;;;;1.00;1.00;;;7.90;99.90;;;;;;4938089;29;20218;-78
2021/03/12 05:27:41;;;;;;;1.00;1.00;;;7.90;99.90;;;;;;4938084;29;20206;-77
2021/03/12 05:30:09;;;;;;;1.00;1.00;;;7.90;99.90;;;;;;4937694;29;20202;-78
2021/03/12 05:32:36;;;;;;;1.00;1.00;;;7.90;99.90;;;;;;4937475;29;20285;-78
2021/03/12 05:35:04;;;;;;;0.90;0.90;;;7.90;99.90;;;;;;4937533;29;20270;-78
2021/03/12 05:37:31;;;;;;;1.00;1.00;;;7.80;99.90;;;;;;4937843;29;20206;-78
2021/03/12 05:39:58;;;;;;;1.10;1.10;;;7.80;99.90;;;;;;4937287;29;20261;-78
2021/03/12 05:42:25;;;;;;;0.90;0.90;;;7.70;99.90;;;;;;4937242;29;20277;-79
2021/03/12 05:44:57;;;;;;;0.90;0.90;;;7.60;99.90;;;;;;4937398;29;20228;-78
2021/03/12 05:47:24;;;;;;;1.10;1.10;;;7.60;99.90;;;;;;4937528;29;20213;-79
2021/03/12 05:49:54;;;;;;;1.10;1.10;;;7.60;99.90;;;;;;4943087;29;20208;-78
2021/03/12 05:52:21;;;;;;;1.17;1.17;;;7.60;99.90;;;;;;4939207;29;20248;-77
2021/03/12 05:54:49;;;;;;;1.10;1.10;;;7.50;99.90;;;;;;4923176;29;20198;-77
2021/03/12 05:57:16;;;;;;;1.10;1.10;;;7.40;99.90;;;;;;4937982;29;20210;-78
2021/03/12 05:59:44;;;;;;;1.00;1.00;;;7.40;99.90;;;;;;4927254;29;20221;-79
2021/03/12 06:02:11;;;;;;;1.00;1.00;;;7.40;99.90;;;;;;4934754;29;20273;-78
2021/03/12 06:04:38;;;;;;;1.20;1.20;;;7.40;99.90;;;;;;4932999;29;20628;-80
2021/03/12 06:07:05;;;;;;;1.10;1.10;;;7.50;99.90;;;;;;4933947;29;20276;-77
2021/03/12 06:09:33;;;;;;;1.00;1.00;;;;;;;;;;4930364;29;20254;-79
2021/03/12 06:12:00;;;;;;;1.00;1.00;;;7.60;99.90;;;;;;4935528;29;20238;-79
2021/03/12 06:14:49;;;;;;;1.00;1.00;;;7.60;99.90;;;;;;4934368;29;20206;-79
2021/03/12 06:17:38;;;;;;;1.27;1.27;;;7.50;99.90;;;;;;4933617;29;20495;-80
2021/03/12 06:20:08;;;;;;;1.20;1.20;;;7.40;99.90;;;;;;4929094;29;20334;-78
2021/03/12 06:22:36;;;;;;;1.10;1.10;;;7.30;99.90;;;;;;4925672;29;20198;-80
2021/03/12 06:25:14;;;;;;;1.20;1.20;;;7.20;99.90;;;;;;4930807;29;20642;-80
2021/03/12 06:27:41;;;;;;;0.97;0.97;;;7.00;99.90;;;;;;4941051;29;20217;-80
2021/03/12 06:30:09;;;;;;;1.10;1.10;;;7.10;99.90;;;;;;4945779;29;20261;-79
2021/03/12 06:32:39;;;;;;;1.20;1.20;;;7.10;99.90;;;;;;4943801;29;20213;-80
2021/03/12 06:35:07;;;;;;;1.30;1.30;;;7.10;99.90;;;;;;4942799;29;20213;-79
2021/03/12 06:37:35;;;;;;;1.20;1.20;;;7.10;99.90;;;;;;4932455;29;20668;-79
2021/03/12 06:40:16;;;;;;;1.27;1.27;;;7.10;99.90;;;;;;4920657;29;20210;-77
2021/03/12 06:43:03;;;;;;;1.20;1.20;;;7.10;99.90;;;;;;4922460;29;20206;-79
2021/03/12 06:45:31;;;;;;;1.00;1.00;;;7.20;99.90;;;;;;4929796;29;20205;-78
2021/03/12 06:48:17;;;;;;;1.23;1.23;;;7.20;99.90;;;;;;4936113;29;20284;-76
2021/03/12 06:50:46;;;;;;;1.10;1.10;;;7.30;99.90;;;;;;4942718;29;20229;-77
2021/03/12 06:53:27;;;;;;;1.10;1.10;;;7.30;99.90;;;;;;4940200;29;20261;-78
2021/03/12 06:55:56;;;;;;;1.00;1.00;;;7.50;99.90;;;;;;4942117;29;20198;-78
2021/03/12 06:58:24;;;;;;;1.23;1.23;;;7.50;99.90;;;;;;4940912;29;20264;-79
2021/03/12 07:00:51;;;;;;;1.00;1.00;;;7.50;99.90;;;;;;4940099;29;20230;-78
2021/03/12 07:03:29;;;;;;;0.90;0.90;;;7.60;99.90;;;;;;4942882;29;20201;-80
2021/03/12 07:06:05;;;;;;;1.17;1.17;;;7.70;99.90;;;;;;4937739;29;20289;-79
2021/03/12 07:08:38;;;;;;;1.17;1.17;;;7.80;99.90;;;;;;4937238;29;20637;-77
2021/03/12 07:11:19;;;;;;;1.00;1.00;;;7.90;99.90;;;;;;4935356;29;20284;-79
2021/03/12 07:13:46;;;;;;;1.10;1.10;;;7.90;99.90;;;;;;4937760;29;20634;-78
2021/03/12 07:16:13;;;;;;;0.90;0.90;;;7.90;99.90;;;;;;4935654;29;20241;-79
2021/03/12 07:18:42;;;;;;;0.90;0.90;;;8.00;99.90;;;;;;4931216;29;20269;-79
2021/03/12 07:21:09;;;;;;;1.10;1.10;;;8.00;99.90;;;;;;4922629;29;20286;-79
2021/03/12 07:23:38;;;;;;;0.97;0.97;;;8.00;99.90;;;;;;4926754;29;20230;-79
2021/03/12 07:26:09;;;;;;;0.80;0.80;;;8.00;99.90;;;;;;4937795;29;20288;-79
2021/03/12 07:28:36;;;;;;;1.00;1.00;;;8.00;99.90;;;;;;4944272;29;20222;-79
2021/03/12 07:31:05;;;;;;;0.90;0.90;;;8.00;99.90;;;;;;4937304;29;20273;-78
2021/03/12 07:33:35;;;;;;;0.90;0.90;;;8.10;99.90;;;;;;4941546;29;20269;-79
2021/03/12 07:36:06;;;;;;;0.80;0.80;;;8.10;99.90;;;;;;4936097;29;20207;-79
2021/03/12 07:38:35;;;;;;;0.90;0.90;;;8.20;99.90;;;;;;4942838;29;20275;-79
2021/03/12 07:41:04;;;;;;;1.00;1.00;;;8.20;99.90;;;;;;4949756;29;20229;-79
2021/03/12 07:43:35;;;;;;;0.90;0.90;;;8.30;99.90;;;;;;4941337;29;20202;-78
2021/03/12 07:46:03;;;;;;;0.90;0.90;;;8.30;99.90;;;;;;4941432;29;20261;-79
2021/03/12 07:48:31;;;;;;;1.10;1.10;;;8.50;99.90;;;;;;4940914;29;20206;-79
2021/03/12 07:51:09;;;;;;;0.90;0.90;;;8.50;99.90;;;;;;4938201;29;20630;-79
2021/03/12 07:53:48;;;;;;;0.80;0.80;;;8.50;99.90;;;;;;4940750;29;20205;-79
2021/03/12 07:56:15;;;;;;;0.80;0.80;;;8.60;99.90;;;;;;4938703;29;20220;-80
2021/03/12 07:58:53;;;;;;;1.17;1.17;;;8.60;99.90;;;;;;4940864;29;20214;-79
2021/03/12 08:01:21;;;;;;;0.80;0.80;;;8.60;99.90;;;;;;4940585;29;20230;-79
2021/03/12 08:03:50;;;;;;;0.80;0.80;;;8.60;99.90;;;;;;4940557;29;20213;-81
2021/03/12 08:06:33;;;;;;;1.00;1.00;;;8.50;99.90;;;;;;4940415;29;20225;-80
2021/03/12 08:09:00;;;;;;;0.90;0.90;;;8.50;99.90;;;;;;4940681;29;20585;-79
2021/03/12 08:11:32;;;;;;;1.00;1.00;;;8.40;99.90;;;;;;4940425;29;20252;-78
2021/03/12 08:14:16;;;;;;;1.00;1.00;;;8.60;99.90;;;;;;4940142;29;20213;-79
2021/03/12 08:17:16;;;;;;;0.80;0.80;;;8.50;99.90;;;;;;4938559;29;20229;-80
2021/03/12 08:19:47;;;;;;;1.10;1.10;;;8.50;99.90;;;;;;4939994;29;20218;-82
2021/03/12 08:22:43;;;;;;;0.97;0.97;;;8.50;99.90;;;;;;4942634;29;20238;-79
2021/03/12 08:25:41;;;;;;;0.90;0.90;;;8.40;99.90;;;;;;4941217;29;20209;-77
2021/03/12 08:28:27;;;;;;;0.90;0.90;;;8.30;99.90;;;;;;4940016;29;20209;-80
2021/03/12 08:30:59;;;;;;;0.90;0.90;;;8.60;99.90;;;;;;4939255;29;20233;-78
2021/03/12 08:33:29;;;;;;;0.93;0.93;;;8.70;99.90;;;;;;4939604;29;20217;-79
2021/03/12 08:35:57;;;;;;;0.80;0.80;;;8.80;99.40;;;;;;4939887;29;20203;-77
2021/03/12 08:38:42;;;;;;;0.90;0.90;;;9.00;99.30;;;;;;4937897;29;20206;-79
2021/03/12 08:41:28;;;;;;;0.90;0.90;;;9.10;98.20;;;;;;4937688;29;20229;-77
2021/03/12 08:43:56;;;;;;;1.00;1.00;;;9.20;98.20;;;;;;4936984;29;20213;-78
2021/03/12 08:46:25;;;;;;;0.90;0.90;;;9.30;97.90;;;;;;4938893;29;20647;-78
2021/03/12 08:48:55;;;;;;;0.80;0.80;;;9.30;97.70;;;;;;4938743;29;20212;-76
2021/03/12 08:51:24;;;;;;;0.80;0.80;;;9.10;97.60;;;;;;4932339;29;20214;-78
2021/03/12 08:53:58;;;;;;;0.90;0.90;;;9.20;97.50;;;;;;4933696;29;20261;-77
2021/03/12 08:56:28;;;;;;;1.00;1.00;;;9.20;97.10;;;;;;4941025;29;20676;-79
2021/03/12 08:58:56;;;;;;;0.90;0.90;;;9.20;96.60;;;;;;4945177;29;20206;-76
2021/03/12 09:01:24;;;;;;;0.90;0.90;;;9.20;97.20;;;;;;4936847;29;20267;-78
2021/03/12 09:03:55;;;;;;;0.90;0.90;;;9.60;99.90;;;;;;4937640;29;20260;-77
2021/03/12 09:06:24;;;;;;;1.00;1.00;;;9.50;96.40;;;;;;4937455;29;20217;-78
2021/03/12 09:09:07;;;;;;;0.88;0.88;;;9.50;96.50;;;;;;4918333;29;20230;-77
2021/03/12 09:11:34;;;;;;;0.80;0.80;;;9.40;96.30;;;;;;4930693;29;20646;-79
2021/03/12 09:14:02;;;;;;;0.80;0.80;;;9.50;96.60;;;;;;4937928;29;20198;-76
2021/03/12 09:16:31;;;;;;;0.90;0.90;;;9.80;96.50;;;;;;4936879;29;20210;-77
2021/03/12 09:19:03;;;;;;;0.85;0.85;;;9.80;96.50;;;;;;4937616;29;20257;-76
2021/03/12 09:21:31;;;;;;;0.90;0.90;;;9.60;96.10;;;;;;4937841;29;20238;-76
2021/03/12 09:23:59;;;;;;;0.80;0.80;;;9.50;95.80;;;;;;4938854;29;20593;-78
2021/03/12 09:26:28;;;;;;;0.80;0.80;;;9.60;96.30;;;;;;4938963;29;20209;-78
2021/03/12 09:28:57;;;;;;;0.82;0.82;;;9.30;99.90;;;;;;4938737;29;20230;-79
2021/03/12 09:31:29;;;;;;;1.05;1.05;;;9.40;96.60;;;;;;4938239;29;20226;-79
2021/03/12 09:33:58;;;;;;;0.82;0.82;;;9.30;97.40;;;;;;4938830;29;20544;-78
2021/03/12 09:36:29;;;;;;;0.80;0.80;;;9.30;97.20;;;;;;4937389;29;20670;-78
2021/03/12 09:39:04;;;;;;;0.80;0.80;;;9.30;97.30;;;;;;4937144;29;20229;-78
2021/03/12 09:41:37;;;;;;;0.90;0.90;;;9.40;97.40;;;;;;4937678;29;20226;-78
2021/03/12 09:44:08;;;;;;;0.90;0.90;;;9.30;96.90;;;;;;4939272;29;20293;-77
2021/03/12 09:46:37;;;;;;;0.70;0.70;;;9.50;97.10;;;;;;4943110;29;20201;-77
2021/03/12 09:49:26;;;;;;;0.77;0.77;;;9.50;96.70;;;;;;4948158;29;20207;-77
2021/03/12 09:51:55;;;;;;;0.90;0.90;;;9.40;99.90;;;;;;4956109;29;20229;-78
2021/03/12 09:54:24;;;;;;;0.90;0.90;;;9.50;96.20;;;;;;4957262;28;20756;-77
2021/03/12 09:56:54;;;;;;;0.90;0.90;;;9.80;96.50;;;;;;4954755;29;20251;-77
2021/03/12 09:59:25;;;;;;;1.00;1.00;;;9.90;95.10;;;;;;4937285;29;20210;-78
2021/03/12 10:02:02;;;;;;;0.90;0.90;;;9.90;99.90;;;;;;4938073;29;20316;-79
2021/03/12 10:04:33;;;;;;;0.88;0.88;;;9.70;99.90;;;;;;4937922;29;20201;-78
2021/03/12 10:07:04;;;;;;;0.68;0.68;;;9.80;94.80;;;;;;4938221;29;20257;-77
2021/03/12 10:09:36;;;;;;;0.88;0.88;;;10.00;94.80;;;;;;4937546;29;20206;-79
2021/03/12 10:12:14;;;;;;;0.82;0.82;;;9.90;99.90;;;;;;4936874;29;20256;-79
2021/03/12 10:14:42;;;;;;;0.90;0.90;;;9.90;94.10;;;;;;4938457;29;20279;-78
2021/03/12 10:17:16;;;;;;;0.80;0.80;;;9.80;99.90;;;;;;4938124;29;20686;-78
2021/03/12 10:19:48;;;;;;;0.90;0.90;;;9.80;99.90;;;;;;4939297;29;20576;-78
2021/03/12 10:22:22;;;;;;;0.73;0.73;;;10.50;99.90;;;;;;4941813;29;20229;-77
2021/03/12 10:24:55;;;;;;;0.90;0.90;;;10.00;92.60;;;;;;4942473;29;20213;-78
2021/03/12 10:27:25;;;;;;;0.88;0.88;;;10.00;99.90;;;;;;4941697;29;20525;-77
2021/03/12 10:29:53;;;;;;;0.80;0.80;;;9.80;99.90;;;;;;4938484;29;20281;-78
2021/03/12 10:32:21;;;;;;;0.88;0.88;;;10.00;99.90;;;;;;4937070;29;20226;-77
2021/03/12 10:34:50;;;;;;;0.90;0.90;;;10.20;99.90;;;;;;4936294;29;20679;-77
2021/03/12 10:37:20;;;;;;;0.93;0.93;;;10.20;92.00;;;;;;4937002;29;20202;-77
2021/03/12 10:39:49;;;;;;;0.77;0.77;;;10.10;90.70;;;;;;4937385;29;20202;-78
2021/03/12 10:42:24;;;;;;;0.80;0.80;;;10.20;91.00;;;;;;4937979;29;20232;-78
2021/03/12 10:44:55;;;;;;;0.80;0.80;;;10.10;90.90;;;;;;4937363;29;20233;-78
2021/03/12 10:47:22;;;;;;;0.95;0.95;;;10.00;90.50;;;;;;4938211;29;20703;-79
2021/03/12 10:49:50;;;;;;;0.90;0.90;;;10.30;90.60;;;;;;4939138;29;20328;-80
2021/03/12 10:52:23;;;;;;;0.80;0.80;;;10.00;99.10;;;;;;4938885;29;20226;-78
2021/03/12 10:54:50;;;;;;;0.90;0.90;;;9.90;99.80;;;;;;4940589;29;20337;-78
2021/03/12 10:57:18;;;;;;;0.80;0.80;;;9.90;90.70;;;;;;4939365;29;20210;-77
2021/03/12 10:59:56;;;;;;;0.80;0.80;;;9.90;90.80;;;;;;4939059;29;20206;-77
2021/03/12 11:02:34;;;;;;;0.82;0.82;;;9.80;90.30;;;;;;4938642;29;20238;-78
2021/03/12 11:05:02;;;;;;;0.77;0.77;;;10.00;90.40;;;;;;4939030;29;20216;-79
2021/03/12 11:07:28;;;;;;;0.90;0.90;;;10.00;90.20;;;;;;4941716;29;20202;-80
2021/03/12 11:09:55;;;;;;;0.90;0.90;;;10.00;99.60;;;;;;4943154;29;20589;-80
2021/03/12 11:12:23;;;;;;;0.80;0.80;;;10.10;99.90;;;;;;4940741;29;20469;-79
2021/03/12 11:14:50;;;;;;;0.80;0.80;;;10.20;90.70;;;;;;4942029;29;20217;-79
2021/03/12 11:17:18;;;;;;;0.80;0.80;;;10.30;90.00;;;;;;4942912;29;20269;-79
2021/03/12 11:19:47;;;;;;;0.90;0.90;;;10.00;99.20;;;;;;4943032;29;20269;-79
2021/03/12 11:22:15;;;;;;;0.90;0.90;;;10.20;90.00;;;;;;4942561;29;20277;-79
2021/03/12 11:24:42;;;;;;;0.80;0.80;;;10.40;90.30;;;;;;4939852;29;20203;-80
2021/03/12 11:27:10;;;;;;;0.80;0.80;;;10.60;98.50;;;;;;4937393;29;20888;-80
2021/03/12 11:29:37;;;;;;;0.80;0.80;;;10.80;98.20;;;;;;4939188;29;20217;-79
2021/03/12 11:32:05;;;;;;;0.82;0.82;;;10.80;98.50;;;;;;4938855;29;20222;-79
2021/03/12 11:34:33;;;;;;;0.80;0.80;;;10.60;97.50;;;;;;4939061;29;20289;-79
2021/03/12 11:37:00;;;;;;;0.80;0.80;;;10.90;97.90;;;;;;4939726;29;20214;-78
2021/03/12 11:39:27;;;;;;;0.80;0.80;;;;;;;;;;4938292;29;20578;-80
2021/03/12 11:41:54;;;;;;;0.80;0.80;;;10.90;98.10;;;;;;4940209;29;20229;-78
2021/03/12 11:44:22;;;;;;;0.80;0.80;;;11.00;96.60;;;;;;4938726;29;20682;-78
2021/03/12 11:46:49;;;;;;;0.80;0.80;;;11.10;85.50;;;;;;4935541;29;20213;-77
2021/03/12 11:49:16;;;;;;;0.80;0.80;;;11.20;96.70;;;;;;4936779;29;20240;-77
2021/03/12 11:51:44;;;;;;;0.80;0.80;;;11.30;85.00;;;;;;4936866;29;20225;-77
2021/03/12 11:54:13;;;;;;;0.88;0.88;;;11.20;84.00;;;;;;4936758;29;20202;-78
2021/03/12 11:56:41;;;;;;;0.75;0.75;;;11.10;84.60;;;;;;4937358;29;20256;-78
2021/03/12 11:59:08;;;;;;;0.80;0.80;;;11.30;95.70;;;;;;4937656;29;20206;-80
2021/03/12 12:01:35;;;;;;;0.80;0.80;;;11.40;83.00;;;;;;4929672;29;20240;-77
2021/03/12 12:04:03;;;;;;;0.80;0.80;;;11.30;93.80;;;;;;4937136;29;20245;-80
2021/03/12 12:06:30;;;;;;;0.70;0.70;;;11.30;78.50;;;;;;4931581;29;20225;-78
2021/03/12 12:08:57;;;;;;;0.88;0.88;;;11.20;79.80;;;;;;4935793;29;20201;-77
2021/03/12 12:11:24;;;;;;;0.80;0.80;;;11.10;94.90;;;;;;4926884;29;20234;-76
2021/03/12 12:13:51;;;;;;;0.70;0.70;;;11.50;93.90;;;;;;4925288;29;20207;-78
2021/03/12 12:16:18;;;;;;;0.80;0.80;;;11.30;78.30;;;;;;4930143;29;20205;-77
2021/03/12 12:18:45;;;;;;;0.70;0.70;;;11.60;94.20;;;;;;4937367;29;20238;-80
2021/03/12 12:21:12;;;;;;;0.80;0.80;;;11.50;79.50;;;;;;4936717;29;20671;-79
2021/03/12 12:23:40;;;;;;;0.80;0.80;;;11.10;77.80;;;;;;4935894;29;20584;-78
2021/03/12 12:26:08;;;;;;;0.80;0.80;;;11.20;94.20;;;;;;4935708;29;20198;-78
2021/03/12 12:28:35;;;;;;;0.70;0.70;;;11.20;79.50;;;;;;4935467;29;20242;-76
2021/03/12 12:31:02;;;;;;;0.88;0.88;;;11.30;79.00;;;;;;4935620;29;20273;-78
2021/03/12 12:33:30;;;;;;;0.77;0.77;;;11.30;78.60;;;;;;4935937;29;20206;-78
2021/03/12 12:35:57;;;;;;;0.60;0.60;;;11.30;94.20;;;;;;4933897;29;20443;-76
2021/03/12 12:38:24;;;;;;;0.70;0.70;;;11.40;79.50;;;;;;4936526;29;20213;-76
2021/03/12 12:40:51;;;;;;;0.70;0.70;;;11.40;79.80;;;;;;4935348;29;20226;-77
2021/03/12 12:43:18;;;;;;;0.70;0.70;;;11.30;93.50;;;;;;4934811;29;20265;-76
2021/03/12 12:45:45;;;;;;;0.70;0.70;;;11.30;77.80;;;;;;4933370;29;20205;-78
2021/03/12 12:48:12;;;;;;;0.80;0.80;;;11.10;77.80;;;;;;4934160;29;20210;-77
2021/03/12 12:50:39;;;;;;;0.70;0.70;;;11.10;78.30;;;;;;4935334;29;20232;-76
2021/03/12 12:53:06;;;;;;;0.70;0.70;;;11.20;94.30;;;;;;4936044;29;20198;-74
2021/03/12 12:55:34;;;;;;;0.70;0.70;;;11.30;82.00;;;;;;4936422;29;20209;-78
2021/03/12 12:58:02;;;;;;;0.70;0.70;;;11.60;79.00;;;;;;4939043;29;20217;-80
2021/03/12 13:00:30;;;;;;;0.80;0.80;;;11.80;93.50;;;;;;4939481;29;20206;-81
2021/03/12 13:02:56;;;;;;;0.60;0.60;;;11.80;77.80;;;;;;4938755;29;20544;-76
2021/03/12 13:05:24;;;;;;;0.73;0.73;;;11.90;78.00;;;;;;4938014;29;20213;-75
2021/03/12 13:07:51;;;;;;;0.73;0.73;;;11.80;77.80;;;;;;4938766;29;20210;-82
2021/03/12 13:10:18;;;;;;;0.60;0.60;;;11.80;92.80;;;;;;4939732;29;20289;-80
2021/03/12 13:12:45;;;;;;;0.73;0.73;;;11.90;76.00;;;;;;4939647;29;20667;-84
2021/03/12 13:15:12;;;;;;;0.70;0.70;;;11.70;76.70;;;;;;4940024;29;20198;-82
2021/03/12 13:17:40;;;;;;;0.75;0.75;;;11.60;75.50;;;;;;4939556;29;20206;-84
2021/03/12 13:20:12;;;;;;;0.70;0.70;;;11.50;76.60;;;;;;4944407;29;20474;-80
2021/03/12 13:22:41;;;;;;;0.70;0.70;;;11.60;75.90;;;;;;4948880;29;20293;-80
2021/03/12 13:25:10;;;;;;;0.70;0.70;;;11.40;76.20;;;;;;4944713;29;20237;-79
2021/03/12 13:27:37;;;;;;;0.70;0.70;;;11.20;77.10;;;;;;4946740;29;20209;-82
2021/03/12 13:30:06;;;;;;;0.80;0.80;;;11.10;77.80;;;;;;4942427;29;20206;-85
2021/03/12 13:32:33;;;;;;;0.70;0.70;;;11.00;78.10;;;;;;4948718;29;20291;-85
2021/03/12 13:35:01;;;;;;;0.70;0.70;;;11.10;77.80;;;;;;4942510;29;20293;-84
2021/03/12 13:37:28;;;;;;;0.70;0.70;;;11.00;78.80;;;;;;4945586;29;20202;-84
2021/03/12 13:39:55;;;;;;;0.70;0.70;;;11.00;77.90;;;;;;4927697;29;20203;-83
2021/03/12 13:42:25;;;;;;;0.73;0.73;;;11.00;75.70;;;;;;4929654;29;20230;-83
2021/03/12 13:44:52;;;;;;;0.77;0.77;;;11.00;76.50;;;;;;4927801;29;20641;-84
2021/03/12 13:47:19;;;;;;;0.70;0.70;;;11.00;76.70;;;;;;4926716;29;20217;-83
2021/03/12 13:49:46;;;;;;;0.80;0.80;;;11.20;75.90;;;;;;4943871;29;20202;-84
2021/03/12 13:52:14;;;;;;;0.80;0.80;;;11.00;74.40;;;;;;4944884;29;20225;-83
2021/03/12 13:54:41;;;;;;;0.80;0.80;;;11.00;74.50;;;;;;4946048;29;20201;-82
2021/03/12 13:57:10;;;;;;;0.70;0.70;;;11.00;74.60;;;;;;4949397;29;20210;-82
2021/03/12 13:59:37;;;;;;;0.73;0.73;;;10.90;75.10;;;;;;4943611;29;20203;-80
2021/03/12 14:02:05;;;;;;;0.70;0.70;;;11.00;75.70;;;;;;4945993;29;20244;-79
2021/03/12 14:04:32;;;;;;;0.70;0.70;;;11.00;75.40;;;;;;4946237;29;20307;-79
2021/03/12 14:06:59;;;;;;;0.70;0.70;;;11.00;76.20;;;;;;4946892;29;20215;-81
2021/03/12 14:09:27;;;;;;;0.80;0.80;;;11.00;92.70;;;;;;4945887;29;20269;-81
2021/03/12 14:11:54;;;;;;;0.80;0.80;;;11.00;76.30;;;;;;4946011;29;20222;-81
2021/03/12 14:14:21;;;;;;;0.70;0.70;;;11.00;76.50;;;;;;4947293;29;20209;-81
2021/03/12 14:16:49;;;;;;;0.70;0.70;;;11.00;77.20;;;;;;4947159;29;20663;-80
2021/03/12 14:19:16;;;;;;;0.80;0.80;;;11.00;77.50;;;;;;4946351;29;20205;-80
2021/03/12 14:21:43;;;;;;;0.80;0.80;;;11.30;77.50;;;;;;4947423;29;20253;-81
2021/03/12 14:24:21;;;;;;;0.70;0.70;;;11.40;77.10;;;;;;4937494;29;20292;-81
2021/03/12 14:26:49;;;;;;;0.70;0.70;;;11.60;76.60;;;;;;4956323;29;20205;-81
2021/03/12 14:29:21;;;;;;;0.70;0.70;;;11.50;76.60;;;;;;4966104;28;20205;-81
2021/03/12 14:31:49;;;;;;;0.60;0.60;;;11.60;76.90;;;;;;4962735;29;20272;-80
2021/03/12 14:34:16;;;;;;;0.80;0.80;;;11.80;76.40;;;;;;4961149;29;20205;-81
2021/03/12 14:36:43;;;;;;;0.70;0.70;;;11.70;75.70;;;;;;4946395;29;20202;-80
2021/03/12 14:39:10;;;;;;;0.70;0.70;;;11.50;76.10;;;;;;4944222;29;20264;-80
2021/03/12 14:41:38;;;;;;;0.70;0.70;;;11.40;76.90;;;;;;4949213;29;20228;-81
2021/03/12 14:44:07;;;;;;;0.80;0.80;;;11.40;76.30;;;;;;4947190;29;20698;-81
2021/03/12 14:46:35;;;;;;;0.80;0.80;;;11.30;75.50;;;;;;4946533;29;20209;-81
2021/03/12 14:49:03;;;;;;;0.80;0.80;;;11.40;76.50;;;;;;4952170;29;20248;-81
2021/03/12 14:51:31;;;;;;;0.60;0.60;;;11.60;76.00;;;;;;4952070;29;20222;-81
2021/03/12 14:53:58;;;;;;;0.60;0.60;;;11.60;75.80;;;;;;4950561;29;20214;-80
2021/03/12 14:56:25;;;;;;;0.70;0.70;;;11.60;74.40;;;;;;4951179;29;20213;-80
2021/03/12 14:58:51;;;;;;;0.75;0.75;;;11.50;75.40;;;;;;4949379;29;20224;-81
2021/03/12 15:01:31;;;;;;;0.80;0.80;;;11.40;74.00;;;;;;4950491;29;20285;-81
2021/03/12 15:03:58;;;;;;;0.70;0.70;;;11.40;74.40;;;;;;4950207;29;20202;-80
2021/03/12 15:06:29;;;;;;;0.80;0.80;;;11.50;73.80;;;;;;4954082;29;20230;-80
2021/03/12 15:08:56;;;;;;;0.70;0.70;;;11.50;73.20;;;;;;4954232;29;20210;-80
2021/03/12 15:11:24;;;;;;;0.80;0.80;;;11.50;71.70;;;;;;4952978;29;20252;-81
2021/03/12 15:13:51;;;;;;;0.70;0.70;;;11.50;72.70;;;;;;4949384;29;20206;-80
2021/03/12 15:16:17;;;;;;;0.75;0.75;;;11.70;72.20;;;;;;4949839;29;20233;-80
2021/03/12 15:18:47;;;;;;;0.70;0.70;;;11.70;71.10;;;;;;4948096;29;20212;-80
2021/03/12 15:21:14;;;;;;;0.70;0.70;;;11.80;70.80;;;;;;4948963;29;20289;-80
2021/03/12 15:23:41;;;;;;;0.70;0.70;;;11.80;71.50;;;;;;4948191;29;20240;-80
2021/03/12 15:26:08;;;;;;;0.70;0.70;;;11.70;71.30;;;;;;4948106;29;20606;-80
2021/03/12 15:28:34;;;;;;;0.50;0.50;;;11.60;71.80;;;;;;4947684;29;20242;-81
2021/03/12 15:31:01;;;;;;;0.80;0.80;;;11.50;71.90;;;;;;4948661;29;20229;-80
2021/03/12 15:33:29;;;;;;;0.80;0.80;;;11.50;72.20;;;;;;4948319;29;20254;-81
2021/03/12 15:35:57;;;;;;;0.60;0.60;;;11.40;73.20;;;;;;4948360;29;20213;-81
2021/03/12 15:38:24;;;;;;;0.70;0.70;;;11.40;72.60;;;;;;4947804;29;20236;-81
2021/03/12 15:40:51;;;;;;;0.70;0.70;;;11.40;72.70;;;;;;4949031;29;20218;-81
2021/03/12 15:43:18;;;;;;;0.70;0.70;;;11.40;72.20;;;;;;4947143;29;20871;-81
2021/03/12 15:45:45;;;;;;;0.80;0.80;;;11.30;72.70;;;;;;4947264;29;20297;-81
2021/03/12 15:48:12;;;;;;;0.70;0.70;;;11.70;73.60;;;;;;4947696;29;20233;-80
2021/03/12 15:50:39;;;;;;;0.80;0.80;;;11.10;73.20;;;;;;4949889;29;20230;-81
2021/03/12 15:53:07;;;;;;;0.70;0.70;;;11.10;73.30;;;;;;4947873;29;20564;-81
2021/03/12 15:55:34;;;;;;;0.70;0.70;;;11.20;73.70;;;;;;4948132;29;20215;-81
2021/03/12 15:58:02;;;;;;;0.68;0.68;;;11.30;73.80;;;;;;4948444;29;20209;-80
2021/03/12 16:00:28;;;;;;;0.60;0.60;;;11.00;91.30;;;;;;4947988;29;20679;-81
2021/03/12 16:02:56;;;;;;;0.90;0.90;;;11.10;73.20;;;;;;4949261;29;20222;-81
2021/03/12 16:05:23;;;;;;;0.77;0.77;;;11.10;72.80;;;;;;4948818;29;20343;-81
2021/03/12 16:07:50;;;;;;;0.75;0.75;;;11.10;72.40;;;;;;4946248;29;20210;-81
2021/03/12 16:10:18;;;;;;;0.80;0.80;;;11.00;91.40;;;;;;4946196;29;20664;-81
2021/03/12 16:12:45;;;;;;;0.70;0.70;;;11.10;72.70;;;;;;4948106;29;20528;-80
2021/03/12 16:15:13;;;;;;;0.60;0.60;;;11.10;72.50;;;;;;4947216;29;20206;-81
2021/03/12 16:17:41;;;;;;;0.80;0.80;;;11.20;72.70;;;;;;4945856;29;20209;-80
2021/03/12 16:20:09;;;;;;;0.70;0.70;;;11.20;74.00;;;;;;4942588;29;20262;-84
2021/03/12 16:22:36;;;;;;;0.70;0.70;;;11.20;74.00;;;;;;4943046;29;20611;-83
2021/03/12 16:25:04;;;;;;;0.70;0.70;;;11.20;73.40;;;;;;4945327;29;20238;-83
2021/03/12 16:27:32;;;;;;;0.65;0.65;;;11.20;72.90;;;;;;4945568;29;20213;-84
2021/03/12 16:29:59;;;;;;;0.70;0.70;;;11.40;73.40;;;;;;4943245;29;20277;-83
2021/03/12 16:32:26;;;;;;;0.60;0.60;;;11.10;73.50;;;;;;4940776;29;20217;-82
2021/03/12 16:34:53;;;;;;;0.70;0.70;;;11.10;73.10;;;;;;4940775;29;20497;-82
2021/03/12 16:37:21;;;;;;;0.80;0.80;;;10.90;73.30;;;;;;4941386;29;20209;-83
2021/03/12 16:39:48;;;;;;;0.80;0.80;;;10.60;91.50;;;;;;4941712;29;20360;-82
2021/03/12 16:42:14;;;;;;;0.70;0.70;;;10.60;73.00;;;;;;4942792;29;20218;-82
2021/03/12 16:44:43;;;;;;;0.70;0.70;;;10.50;73.00;;;;;;4942621;29;20264;-82
2021/03/12 16:47:11;;;;;;;0.70;0.70;;;10.50;73.40;;;;;;4942293;29;20288;-80
2021/03/12 16:49:38;;;;;;;0.60;0.60;;;10.50;73.90;;;;;;4937818;29;20206;-83
2021/03/12 16:52:05;;;;;;;0.73;0.73;;;10.50;74.00;;;;;;4927610;29;20628;-81
2021/03/12 16:54:35;;;;;;;0.70;0.70;;;10.50;74.40;;;;;;4937253;29;20667;-84
2021/03/12 16:57:03;;;;;;;0.70;0.70;;;10.30;92.40;;;;;;4941985;29;20212;-83
2021/03/12 16:59:29;;;;;;;0.80;0.80;;;10.30;92.10;;;;;;4939310;29;20277;-83
2021/03/12 17:01:58;;;;;;;0.73;0.73;;;10.20;74.60;;;;;;4941020;29;20250;-82
2021/03/12 17:04:26;;;;;;;0.80;0.80;;;10.20;75.20;;;;;;4941651;29;20237;-82
2021/03/12 17:06:52;;;;;;;0.88;0.88;;;10.10;75.10;;;;;;4942802;29;20285;-82
2021/03/12 17:09:21;;;;;;;0.70;0.70;;;10.10;75.10;;;;;;4944294;29;20206;-83
2021/03/12 17:11:49;;;;;;;0.63;0.63;;;10.00;74.60;;;;;;4939941;29;20234;-84
2021/03/12 17:14:16;;;;;;;0.80;0.80;;;10.10;92.40;;;;;;4939221;29;20201;-83
2021/03/12 17:16:43;;;;;;;0.65;0.65;;;10.00;75.70;;;;;;4941264;29;20214;-83
2021/03/12 17:19:11;;;;;;;0.80;0.80;;;9.90;75.90;;;;;;4940319;29;20694;-85
2021/03/12 17:21:38;;;;;;;0.70;0.70;;;9.90;92.30;;;;;;4951603;29;20257;-84
2021/03/12 17:24:06;;;;;;;0.70;0.70;;;9.80;75.00;;;;;;4943873;29;20322;-84
2021/03/12 17:26:34;;;;;;;0.80;0.80;;;;;;;;;;5008445;23;20246;-79
2021/03/12 17:29:01;;;;;;;0.80;0.80;;;9.40;92.10;;;;;;5007090;28;20228;-78
2021/03/12 17:31:28;;;;;;;0.80;0.80;;;9.50;89.00;;;;;;5007410;28;20250;-78
2021/03/12 17:33:56;;;;;;;0.80;0.80;;;;;;;;;;5004903;28;20200;-78
2021/03/12 17:36:24;;;;;;;0.70;0.70;;;9.70;92.10;;;;;;4998175;28;20223;-79
2021/03/12 17:38:51;;;;;;;0.70;0.70;;;9.70;92.20;;;;;;4999599;28;20200;-80
2021/03/12 17:41:18;;;;;;;0.70;0.70;;;;;;;;;;5004586;28;20199;-80
2021/03/12 17:43:45;;;;;;;0.80;0.80;;;9.60;92.00;;;;;;5015974;28;20219;-79
2021/03/12 17:46:12;;;;;;;0.90;0.90;;;9.50;87.20;;;;;;5013799;28;20214;-80
2021/03/12 17:48:39;;;;;;;0.80;0.80;;;9.40;92.20;;;;;;5014902;28;20211;-79
2021/03/12 17:51:08;;;;;;;0.70;0.70;;;9.40;81.00;;;;;;5008347;28;20683;-79
2021/03/12 17:53:36;;;;;;;0.80;0.80;;;9.80;92.50;;;;;;4998774;28;20204;-78
2021/03/12 17:56:03;;;;;;;0.80;0.80;;;9.70;88.90;;;;;;4997596;28;20224;-79
2021/03/12 17:58:33;;;;;;;0.77;0.77;;;9.40;92.50;;;;;;4997229;28;20637;-79
2021/03/12 18:01:00;;;;;;;0.80;0.80;;;9.50;92.40;;;;;;4996794;28;20204;-79
2021/03/12 18:03:28;;;;;;;0.80;0.80;;;9.30;75.10;;;;;;4996944;28;20278;-78
2021/03/12 18:05:55;;;;;;;1.00;1.00;;;9.50;92.80;;;;;;4996996;28;20599;-79
2021/03/12 18:08:22;;;;;;;0.80;0.80;;;9.40;93.00;;;;;;4995231;28;20208;-77
2021/03/12 18:10:53;;;;;;;0.98;0.98;;;9.60;91.90;;;;;;4994757;28;20215;-78
2021/03/12 18:13:21;;;;;;;0.80;0.80;;;8.90;75.70;;;;;;4995575;28;20199;-78